Versión en castellano
places Weather data articles

Conditions at Mairena del Aljarafe, Sevilla, Spain
Year Month Day Show

  Date        time        Out Temp.    Out hum.   Wind Dir.    Wind speed   SL Pressure   In T. Today rain 

   04-07-2022    22:40      24.4º(+2.6)     57%      180 (S)      4.8 km/h    1015.5 hpa     28.9º    0.0 mm
   04-07-2022    22:35      24.6º(+2.8)     55%      202 (S)      4.8 km/h    1015.4 hpa     29.1º    0.0 mm
   04-07-2022    22:30      24.9º(+2.9)     54%      225(SW)      6.4 km/h    1015.2 hpa     29.1º    0.0 mm
   04-07-2022    22:25      25.2º(+3.0)     53%      225(SW)      4.8 km/h    1015.0 hpa     29.1º    0.0 mm
   04-07-2022    22:20      25.4º(+3.1)     53%      225(SW)      6.4 km/h    1014.9 hpa     29.1º    0.0 mm
   04-07-2022    22:15      25.8º(+3.4)     52%      247(SW)      6.4 km/h    1014.9 hpa     29.1º    0.0 mm
   04-07-2022    22:10      26.1º(+3.4)     51%      247(SW)      6.4 km/h    1014.9 hpa     29.1º    0.0 mm
   04-07-2022    22:05      26.5º(+3.6)     49%      247(SW)      6.4 km/h    1014.7 hpa     29.1º    0.0 mm
   04-07-2022    22:00      26.8º(+3.8)     47%      247(SW)      6.4 km/h    1014.5 hpa     29.1º    0.0 mm
   04-07-2022    21:55      27.1º(+3.9)     46%      247(SW)      4.8 km/h    1014.4 hpa     29.1º    0.0 mm
   04-07-2022    21:50      27.3º(+4.0)     45%      225(SW)      6.4 km/h    1014.4 hpa     29.1º    0.0 mm
   04-07-2022    21:45      27.6º(+4.2)     44%      225(SW)      4.8 km/h    1014.3 hpa     29.1º    0.0 mm
   04-07-2022    21:40      27.8º(+4.2)     42%      225(SW)      6.4 km/h    1014.3 hpa     29.1º    0.0 mm
   04-07-2022    21:35      28.2º(+4.5)     41%      202 (S)      6.4 km/h    1014.3 hpa     29.1º    0.0 mm
   04-07-2022    21:30      28.6º(+4.8)     39%      225(SW)      6.4 km/h    1014.3 hpa     29.2º    0.0 mm
   04-07-2022    21:25      28.9º(+4.9)     39%      202 (S)      6.4 km/h    1014.3 hpa     29.2º    0.0 mm
   04-07-2022    21:20      29.2º(+5.1)     39%      202 (S)      4.8 km/h    1014.1 hpa     29.2º    0.0 mm
   04-07-2022    21:15      29.4º(+5.2)     38%      202 (S)      6.4 km/h    1014.1 hpa     29.2º    0.0 mm
   04-07-2022    21:10      29.6º(+5.2)     39%      225(SW)      8.0 km/h    1014.0 hpa     29.2º    0.0 mm
   04-07-2022    21:05      29.8º(+5.2)     39%      225(SW)      8.0 km/h    1013.9 hpa     29.2º    0.0 mm
   04-07-2022    21:00      30.0º(+5.1)     39%      202 (S)      8.0 km/h    1013.8 hpa     29.2º    0.0 mm
   04-07-2022    20:55      30.3º(+5.1)     38%      225(SW)      8.0 km/h    1013.7 hpa     29.2º    0.0 mm
   04-07-2022    20:50      30.8º(+5.2)     38%      247(SW)      8.0 km/h    1013.7 hpa     29.2º    0.0 mm
   04-07-2022    20:45      31.2º(+5.5)     37%      225(SW)      9.7 km/h    1013.6 hpa     29.2º    0.0 mm
   04-07-2022    20:40      31.7º(+5.7)     37%      225(SW)      4.8 km/h    1013.6 hpa     29.2º    0.0 mm
   04-07-2022    20:35      32.0º(+5.6)     36%      247(SW)      6.4 km/h    1013.5 hpa     29.2º    0.0 mm
   04-07-2022    20:30      32.1º(+5.7)     36%      270 (W)      4.8 km/h    1013.6 hpa     29.2º    0.0 mm
   04-07-2022    20:25      32.1º(+5.4)     36%      247(SW)      8.0 km/h    1013.5 hpa     29.2º    0.0 mm
   04-07-2022    20:20      32.2º(+5.5)     36%      270 (W)      6.4 km/h    1013.4 hpa     29.2º    0.0 mm
   04-07-2022    20:15      32.3º(+5.6)     35%      247(SW)      6.4 km/h    1013.4 hpa     29.2º    0.0 mm
   04-07-2022    20:10      32.3º(+5.3)     36%      180 (S)      4.8 km/h    1013.4 hpa     29.2º    0.0 mm
   04-07-2022    20:05      32.3º(+5.1)     35%      270 (W)      6.4 km/h    1013.4 hpa     29.2º    0.0 mm
   04-07-2022    20:00      32.4º(+5.0)     36%      247(SW)      8.0 km/h    1013.4 hpa     29.2º    0.0 mm
   04-07-2022    19:55      32.7º(+5.3)     35%      247(SW)      8.0 km/h    1013.4 hpa     29.2º    0.0 mm
   04-07-2022    19:50      33.0º(+5.4)     34%      270 (W)      6.4 km/h    1013.4 hpa     29.2º    0.0 mm
   04-07-2022    19:45      33.2º(+5.7)     33%      247(SW)      6.4 km/h    1013.4 hpa     29.2º    0.0 mm
   04-07-2022    19:40      33.3º(+5.9)     34%      270 (W)      4.8 km/h    1013.4 hpa     29.2º    0.0 mm
   04-07-2022    19:35      33.2º(+5.8)     33%      292 (W)      4.8 km/h    1013.4 hpa     29.2º    0.0 mm
   04-07-2022    19:30      33.2º(+5.7)     33%      270 (W)      4.8 km/h    1013.5 hpa     29.2º    0.0 mm
   04-07-2022    19:25      33.0º(+5.3)     34%      135(SE)      3.2 km/h    1013.6 hpa     29.2º    0.0 mm
   04-07-2022    19:20      32.8º(+5.2)     36%      135(SE)      1.6 km/h    1013.5 hpa     29.2º    0.0 mm
   04-07-2022    19:15      33.1º(+5.5)     35%      180 (S)      4.8 km/h    1013.6 hpa     29.2º    0.0 mm
   04-07-2022    19:10      32.9º(+5.4)     37%      180 (S)      4.8 km/h    1013.7 hpa     29.2º    0.0 mm
   04-07-2022    19:05      32.9º(+5.1)     37%      112 (E)      3.2 km/h    1013.7 hpa     29.2º    0.0 mm
   04-07-2022    19:00      32.8º(+4.9)     37%      157(SE)      4.8 km/h    1013.7 hpa     29.1º    0.0 mm
   04-07-2022    18:55      32.8º(+4.7)     37%      112 (E)      4.8 km/h    1013.8 hpa     29.1º    0.0 mm
   04-07-2022    18:50      32.8º(+4.7)     37%      067(NE)      6.4 km/h    1013.9 hpa     29.1º    0.0 mm
   04-07-2022    18:45      32.8º(+4.9)     36%      045(NE)      6.4 km/h    1013.8 hpa     28.9º    0.0 mm
   04-07-2022    18:40      32.8º(+4.7)     36%      090 (E)      4.8 km/h    1013.9 hpa     28.9º    0.0 mm
   04-07-2022    18:35      33.2º(+5.0)     35%      157(SE)      3.2 km/h    1014.0 hpa     28.9º    0.0 mm
   04-07-2022    18:30      33.2º(+4.6)     35%      202 (S)      3.2 km/h    1014.0 hpa     28.9º    0.0 mm
   04-07-2022    18:25      33.3º(+4.8)     33%      112 (E)      4.8 km/h    1014.1 hpa     28.9º    0.0 mm
   04-07-2022    18:20      33.3º(+4.9)     31%      112 (E)      3.2 km/h    1014.2 hpa     28.8º    0.0 mm
   04-07-2022    18:15      33.3º(+4.9)     30%      225(SW)      4.8 km/h    1014.2 hpa     28.8º    0.0 mm
   04-07-2022    18:10      33.2º(+4.6)     29%      270 (W)      4.8 km/h    1014.2 hpa     28.8º    0.0 mm
   04-07-2022    18:05      33.4º(+4.8)     28%      135(SE)      4.8 km/h    1014.4 hpa     28.8º    0.0 mm
   04-07-2022    18:00      33.3º(+4.8)     28%      112 (E)      3.2 km/h    1014.3 hpa     28.8º    0.0 mm
   04-07-2022    17:55      33.2º(+4.8)     28%      202 (S)      3.2 km/h    1014.4 hpa     28.8º    0.0 mm
   04-07-2022    17:50      33.1º(+4.5)     28%      112 (E)      3.2 km/h    1014.4 hpa     28.8º    0.0 mm
   04-07-2022    17:45      33.2º(+4.7)     27%      225(SW)      3.2 km/h    1014.5 hpa     28.7º    0.0 mm
   04-07-2022    17:40      33.1º(+4.6)     28%      225(SW)      3.2 km/h    1014.6 hpa     28.7º    0.0 mm
   04-07-2022    17:35      32.9º(+4.5)     29%      157(SE)      1.6 km/h    1014.6 hpa     28.7º    0.0 mm
   04-07-2022    17:30      32.9º(+4.5)     29%      157(SE)      3.2 km/h    1014.6 hpa     28.7º    0.0 mm
   04-07-2022    17:25      32.7º(+4.3)     29%      202 (S)      4.8 km/h    1014.8 hpa     28.7º    0.0 mm
   04-07-2022    17:20      32.5º(+4.0)     30%      225(SW)      3.2 km/h    1014.7 hpa     28.7º    0.0 mm
   04-07-2022    17:15      32.2º(+3.5)     29%      180 (S)      3.2 km/h    1014.8 hpa     28.7º    0.0 mm
   04-07-2022    17:10      32.1º(+3.3)     31%      112 (E)      3.2 km/h    1014.9 hpa     28.7º    0.0 mm
   04-07-2022    17:05      32.1º(+3.5)     31%      180 (S)      4.8 km/h    1014.9 hpa     28.6º    0.0 mm
   04-07-2022    17:00      32.1º(+3.8)     31%      225(SW)      4.8 km/h    1015.1 hpa     28.6º    0.0 mm
   04-07-2022    16:55      31.7º(+3.3)     32%      180 (S)      4.8 km/h    1015.1 hpa     28.6º    0.0 mm
   04-07-2022    16:50      31.2º(+2.7)     32%      090 (E)      4.8 km/h    1015.1 hpa     28.6º    0.0 mm
   04-07-2022    16:45      31.4º(+2.8)     31%      112 (E)      4.8 km/h    1015.1 hpa     28.6º    0.0 mm
   04-07-2022    16:40      31.7º(+3.1)     32%      135(SE)      3.2 km/h    1015.2 hpa     28.6º    0.0 mm
   04-07-2022    16:35      31.4º(+2.6)     30%      135(SE)      4.8 km/h    1015.3 hpa     28.6º    0.0 mm
   04-07-2022    16:30      31.2º(+2.5)     28%      112 (E)      4.8 km/h    1015.3 hpa     28.6º    0.0 mm
   04-07-2022    16:25      31.5º(+3.0)     30%      112 (E)      4.8 km/h    1015.5 hpa     28.6º    0.0 mm
   04-07-2022    16:20      31.4º(+2.9)     32%      202 (S)      3.2 km/h    1015.5 hpa     28.6º    0.0 mm
   04-07-2022    16:15      31.3º(+2.9)     33%      135(SE)      3.2 km/h    1015.6 hpa     28.5º    0.0 mm
   04-07-2022    16:10      31.4º(+3.0)     34%         -         0.0 km/h    1015.7 hpa     28.5º    0.0 mm
   04-07-2022    16:05      31.3º(+2.8)     33%      157(SE)      3.2 km/h    1015.7 hpa     28.5º    0.0 mm
   04-07-2022    16:00      31.6º(+3.3)     33%      157(SE)      1.6 km/h    1015.8 hpa     28.5º    0.0 mm
   04-07-2022    15:55      31.3º(+3.1)     34%      090 (E)      1.6 km/h    1015.9 hpa     28.5º    0.0 mm
   04-07-2022    15:50      31.1º(+3.0)     36%      202 (S)      1.6 km/h    1015.9 hpa     28.5º    0.0 mm
   04-07-2022    15:45      30.8º(+2.6)     36%      202 (S)      1.6 km/h    1015.9 hpa     28.5º    0.0 mm
   04-07-2022    15:40      30.4º(+2.3)     37%      022 (N)      1.6 km/h    1016.0 hpa     28.5º    0.0 mm
   04-07-2022    15:35      30.1º(+2.2)     37%      022 (N)      1.6 km/h    1016.1 hpa     28.5º    0.0 mm
   04-07-2022    15:30      29.8º(+1.8)     39%      022 (N)      1.6 km/h    1016.2 hpa     28.5º    0.0 mm
   04-07-2022    15:25      29.6º(+1.8)     41%      022 (N)      1.6 km/h    1016.2 hpa     28.5º    0.0 mm
   04-07-2022    15:20      29.4º(+1.8)     41%      022 (N)      1.6 km/h    1016.3 hpa     28.5º    0.0 mm
   04-07-2022    15:15      29.6º(+2.1)     41%      202 (S)      3.2 km/h    1016.4 hpa     28.4º    0.0 mm
   04-07-2022    15:10      29.2º(+1.8)     42%      202 (S)      3.2 km/h    1016.5 hpa     28.4º    0.0 mm
   04-07-2022    15:05      29.1º(+1.5)     43%      090 (E)      1.6 km/h    1016.5 hpa     28.4º    0.0 mm
   04-07-2022    15:00      28.9º(+1.5)     43%      090 (E)      1.6 km/h    1016.6 hpa     28.4º    0.0 mm
   04-07-2022    14:55      28.8º(+1.7)     44%      067(NE)      1.6 km/h    1016.6 hpa     28.4º    0.0 mm
   04-07-2022    14:50      28.8º(+1.6)     44%      315(NW)      3.2 km/h    1016.7 hpa     28.4º    0.0 mm
   04-07-2022    14:45      28.8º(+1.4)     44%      202 (S)      3.2 km/h    1016.7 hpa     28.4º    0.0 mm
   04-07-2022    14:40      28.6º(+1.4)     46%         -         0.0 km/h    1016.8 hpa     28.4º    0.0 mm
   04-07-2022    14:35      28.2º(+1.1)     47%      202 (S)      1.6 km/h    1016.9 hpa     28.4º    0.0 mm
   04-07-2022    14:30      27.9º(+1.0)     47%      270 (W)      3.2 km/h    1016.9 hpa     28.4º    0.0 mm
   04-07-2022    14:25      27.6º(+0.7)     50%      247(SW)      1.6 km/h    1017.0 hpa     28.4º    0.0 mm
   04-07-2022    14:20      27.4º(+0.7)     50%      247(SW)      4.8 km/h    1017.2 hpa     28.3º    0.0 mm
   04-07-2022    14:15      27.2º(+0.7)     51%      135(SE)      3.2 km/h    1017.2 hpa     28.3º    0.0 mm
   04-07-2022    14:10      27.2º(+0.8)     51%      135(SE)      1.6 km/h    1017.3 hpa     28.4º    0.0 mm
   04-07-2022    14:05      27.1º(+0.8)     52%      157(SE)      3.2 km/h    1017.4 hpa     28.4º    0.0 mm
   04-07-2022    14:00      26.8º(+0.8)     53%      135(SE)      1.6 km/h    1017.4 hpa     28.4º    0.0 mm
   04-07-2022    13:55      26.6º(+0.7)     53%      270 (W)      1.6 km/h    1017.3 hpa     28.4º    0.0 mm
   04-07-2022    13:50      26.4º(+0.5)     54%      090 (E)      1.6 km/h    1017.3 hpa     28.4º    0.0 mm
   04-07-2022    13:45      26.3º(+0.5)     54%      090 (E)      1.6 km/h    1017.3 hpa     28.4º    0.0 mm
   04-07-2022    13:40      26.6º(+1.0)     53%      090 (E)      1.6 km/h    1017.5 hpa     28.4º    0.0 mm
   04-07-2022    13:35      26.8º(+1.5)     53%         -         0.0 km/h    1017.6 hpa     28.4º    0.0 mm
   04-07-2022    13:30      26.3º(+1.2)     55%         -         0.0 km/h    1017.7 hpa     28.4º    0.0 mm
   04-07-2022    13:25      25.9º(+1.1)     55%      090 (E)      1.6 km/h    1017.8 hpa     28.4º    0.0 mm
   04-07-2022    13:20      25.8º(+1.2)     56%      090 (E)      1.6 km/h    1017.8 hpa     28.4º    0.0 mm
   04-07-2022    13:15      25.6º(+1.1)     57%         -         0.0 km/h    1017.9 hpa     28.3º    0.0 mm
   04-07-2022    13:10      25.3º(+0.9)     58%      067(NE)      1.6 km/h    1018.0 hpa     28.3º    0.0 mm
   04-07-2022    13:05      24.9º(+0.5)     59%         -         0.0 km/h    1018.0 hpa     28.3º    0.0 mm
   04-07-2022    13:00      24.6º(+0.2)     60%      067(NE)      1.6 km/h    1018.0 hpa     28.3º    0.0 mm
   04-07-2022    12:55      24.3º(-0.1)     61%      067(NE)      1.6 km/h    1018.0 hpa     28.3º    0.0 mm
   04-07-2022    12:50      24.4º(+0.2)     61%      067(NE)      3.2 km/h    1018.0 hpa     28.3º    0.0 mm
   04-07-2022    12:45      24.3º(+0.1)     62%         -         0.0 km/h    1018.0 hpa     28.3º    0.0 mm
   04-07-2022    12:40      24.3º(+0.3)     60%      067(NE)      3.2 km/h    1018.1 hpa     28.3º    0.0 mm
   04-07-2022    12:35      24.0º(+0.2)     63%         -         0.0 km/h    1018.1 hpa     28.3º    0.0 mm
   04-07-2022    12:30      23.3º(-0.3)     64%         -         0.0 km/h    1018.1 hpa     28.3º    0.0 mm
   04-07-2022    12:25      23.3º(+0.0)     64%         -         0.0 km/h    1018.3 hpa     28.3º    0.0 mm
   04-07-2022    12:20      23.2º(+0.4)     64%         -         0.0 km/h    1018.3 hpa     28.3º    0.0 mm
   04-07-2022    12:15      23.2º(+0.5)     64%      045(NE)      1.6 km/h    1018.3 hpa     28.3º    0.0 mm
   04-07-2022    12:10      23.5º(+0.9)     63%      090 (E)      1.6 km/h    1018.4 hpa     28.3º    0.0 mm
   04-07-2022    12:05      23.4º(+1.1)     64%         -         0.0 km/h    1018.3 hpa     28.3º    0.0 mm
   04-07-2022    12:00      23.1º(+0.8)     65%         -         0.0 km/h    1018.3 hpa     28.3º    0.0 mm
   04-07-2022    11:55      22.8º(+0.6)     66%      000 (N)      1.6 km/h    1018.4 hpa     28.3º    0.0 mm
   04-07-2022    11:50      22.7º(+0.7)     66%         -         0.0 km/h    1018.2 hpa     28.2º    0.0 mm
   04-07-2022    11:45      22.4º(+0.5)     67%         -         0.0 km/h    1018.5 hpa     28.2º    0.0 mm
   04-07-2022    11:40      22.3º(+0.5)     68%         -         0.0 km/h    1018.5 hpa     28.2º    0.0 mm
   04-07-2022    11:35      22.1º(+0.4)     70%         -         0.0 km/h    1018.5 hpa     28.2º    0.0 mm
   04-07-2022    11:30      21.8º(+0.2)     70%         -         0.0 km/h    1018.6 hpa     28.1º    0.0 mm
   04-07-2022    11:25      21.7º(+0.1)     70%      292 (W)      3.2 km/h    1018.6 hpa     28.1º    0.0 mm
   04-07-2022    11:20      21.6º(+0.2)     72%         -         0.0 km/h    1018.6 hpa     28.1º    0.0 mm
   04-07-2022    11:15      21.2º(-0.1)     72%         -         0.0 km/h    1018.7 hpa     27.9º    0.0 mm
   04-07-2022    11:10      21.1º(-0.2)     73%      090 (E)      1.6 km/h    1018.7 hpa     27.9º    0.0 mm
   04-07-2022    11:05      20.8º(-0.4)     73%         -         0.0 km/h    1018.8 hpa     27.8º    0.0 mm
   04-07-2022    11:00      20.7º(-0.4)     74%         -         0.0 km/h    1018.9 hpa     27.8º    0.0 mm
   04-07-2022    10:55      20.6º(-0.3)     74%         -         0.0 km/h    1018.8 hpa     27.8º    0.0 mm
   04-07-2022    10:50      20.4º(-0.5)     74%         -         0.0 km/h    1018.8 hpa     27.8º    0.0 mm
   04-07-2022    10:45      20.3º(-0.6)     75%         -         0.0 km/h    1018.7 hpa     27.8º    0.0 mm
   04-07-2022    10:40      20.2º(-0.7)     75%         -         0.0 km/h    1018.7 hpa     27.7º    0.0 mm
   04-07-2022    10:35      20.0º(-0.9)     76%         -         0.0 km/h    1018.7 hpa     27.7º    0.0 mm
   04-07-2022    10:30      19.9º(-0.9)     76%      090 (E)      1.6 km/h    1018.8 hpa     27.7º    0.0 mm
   04-07-2022    10:25      19.8º(-1.0)     77%      090 (E)      1.6 km/h    1018.8 hpa     27.8º    0.0 mm
   04-07-2022    10:20      19.7º(-1.1)     77%      090 (E)      3.2 km/h    1018.9 hpa     27.8º    0.0 mm
   04-07-2022    10:15      19.6º(-1.1)     78%      090 (E)      1.6 km/h    1018.9 hpa     27.8º    0.0 mm
   04-07-2022    10:10      19.6º(-1.1)     78%      090 (E)      3.2 km/h    1018.9 hpa     27.8º    0.0 mm
   04-07-2022    10:05      19.5º(-1.1)     78%      090 (E)      4.8 km/h    1018.8 hpa     27.8º    0.0 mm
   04-07-2022    10:00      19.4º(-1.2)     78%      112 (E)      1.6 km/h    1018.8 hpa     27.8º    0.0 mm
   04-07-2022    09:55      19.4º(-1.2)     78%      090 (E)      4.8 km/h    1018.8 hpa     27.8º    0.0 mm
   04-07-2022    09:50      19.3º(-1.3)     79%         -         0.0 km/h    1018.7 hpa     27.9º    0.0 mm
   04-07-2022    09:45      19.2º(-1.4)     79%      090 (E)      4.8 km/h    1018.7 hpa     27.9º    0.0 mm
   04-07-2022    09:40      19.4º(-1.1)     78%      090 (E)      3.2 km/h    1018.6 hpa     27.9º    0.0 mm
   04-07-2022    09:35      19.5º(-1.1)     79%         -         0.0 km/h    1018.6 hpa     28.1º    0.0 mm
   04-07-2022    09:30      19.4º(-1.2)     80%         -         0.0 km/h    1018.6 hpa     28.1º    0.0 mm
   04-07-2022    09:25      19.3º(-1.2)     80%         -         0.0 km/h    1018.7 hpa     28.1º    0.0 mm
   04-07-2022    09:20      19.2º(-1.2)     81%         -         0.0 km/h    1018.8 hpa     28.1º    0.0 mm
   04-07-2022    09:15      19.1º(-1.2)     81%         -         0.0 km/h    1018.7 hpa     28.1º    0.0 mm
   04-07-2022    09:10      19.1º(-1.2)     82%         -         0.0 km/h    1018.6 hpa     28.1º    0.0 mm
   04-07-2022    09:05      19.1º(-1.2)     83%         -         0.0 km/h    1018.6 hpa     28.1º    0.0 mm
   04-07-2022    09:00      19.1º(-1.2)     85%         -         0.0 km/h    1018.6 hpa     28.1º    0.0 mm
   04-07-2022    08:55      19.1º(-1.2)     85%         -         0.0 km/h    1018.6 hpa     28.2º    0.0 mm
   04-07-2022    08:50      18.9º(-1.4)     85%         -         0.0 km/h    1018.6 hpa     28.2º    0.0 mm
   04-07-2022    08:45      18.7º(-1.6)     85%         -         0.0 km/h    1018.6 hpa     28.2º    0.0 mm
   04-07-2022    08:40      18.7º(-1.6)     85%         -         0.0 km/h    1018.6 hpa     28.2º    0.0 mm
   04-07-2022    08:35      18.7º(-1.6)     86%         -         0.0 km/h    1018.6 hpa     28.2º    0.0 mm
   04-07-2022    08:30      18.7º(-1.6)     86%         -         0.0 km/h    1018.6 hpa     28.2º    0.0 mm
   04-07-2022    08:25      18.6º(-1.8)     87%         -         0.0 km/h    1018.6 hpa     28.2º    0.0 mm
   04-07-2022    08:20      18.6º(-2.0)     87%         -         0.0 km/h    1018.6 hpa     28.2º    0.0 mm
   04-07-2022    08:15      18.5º(-2.2)     87%         -         0.0 km/h    1018.6 hpa     28.2º    0.0 mm
   04-07-2022    08:10      18.4º(-2.4)     87%         -         0.0 km/h    1018.4 hpa     28.3º    0.0 mm
   04-07-2022    08:05      18.4º(-2.5)     88%      135(SE)      1.6 km/h    1018.3 hpa     28.3º    0.0 mm
   04-07-2022    08:00      18.3º(-2.6)     87%         -         0.0 km/h    1018.4 hpa     28.3º    0.0 mm
   04-07-2022    07:55      18.3º(-2.7)     88%         -         0.0 km/h    1018.3 hpa     28.3º    0.0 mm
   04-07-2022    07:50      18.3º(-2.8)     88%         -         0.0 km/h    1018.4 hpa     28.3º    0.0 mm
   04-07-2022    07:45      18.2º(-2.9)     88%         -         0.0 km/h    1018.3 hpa     28.3º    0.0 mm
   04-07-2022    07:40      18.2º(-2.9)     88%         -         0.0 km/h    1018.2 hpa     28.3º    0.0 mm
   04-07-2022    07:35      18.2º(-2.9)     88%         -         0.0 km/h    1018.2 hpa     28.2º    0.0 mm
   04-07-2022    07:30      18.2º(-2.9)     89%         -         0.0 km/h    1018.2 hpa     28.2º    0.0 mm
   04-07-2022    07:25      18.2º(-2.9)     89%         -         0.0 km/h    1018.3 hpa     28.2º    0.0 mm
   04-07-2022    07:20      18.2º(-2.9)     89%         -         0.0 km/h    1018.2 hpa     28.2º    0.0 mm
   04-07-2022    07:15      18.2º(-3.0)     89%         -         0.0 km/h    1018.1 hpa     28.2º    0.0 mm
   04-07-2022    07:10      18.1º(-3.1)     89%         -         0.0 km/h    1018.1 hpa     28.2º    0.0 mm
   04-07-2022    07:05      18.1º(-3.1)     89%         -         0.0 km/h    1018.1 hpa     28.2º    0.0 mm
   04-07-2022    07:00      18.0º(-3.3)     89%         -         0.0 km/h    1018.2 hpa     28.2º    0.0 mm
   04-07-2022    06:55      17.9º(-3.4)     89%         -         0.0 km/h    1018.1 hpa     28.2º    0.0 mm
   04-07-2022    06:50      17.9º(-3.4)     89%         -         0.0 km/h    1018.2 hpa     28.3º    0.0 mm
   04-07-2022    06:45      17.8º(-3.5)     88%         -         0.0 km/h    1018.1 hpa     28.3º    0.0 mm
   04-07-2022    06:40      17.8º(-3.5)     88%         -         0.0 km/h    1018.1 hpa     28.3º    0.0 mm
   04-07-2022    06:35      17.8º(-3.5)     88%         -         0.0 km/h    1018.0 hpa     28.3º    0.0 mm
   04-07-2022    06:30      17.8º(-3.5)     88%         -         0.0 km/h    1018.0 hpa     28.3º    0.0 mm
   04-07-2022    06:25      17.8º(-3.5)     88%         -         0.0 km/h    1017.9 hpa     28.3º    0.0 mm
   04-07-2022    06:20      17.8º(-3.5)     88%         -         0.0 km/h    1018.0 hpa     28.3º    0.0 mm
   04-07-2022    06:15      17.8º(-3.5)     88%         -         0.0 km/h    1018.0 hpa     28.4º    0.0 mm
   04-07-2022    06:10      17.8º(-3.5)     88%         -         0.0 km/h    1018.1 hpa     28.4º    0.0 mm
   04-07-2022    06:05      17.8º(-3.5)     88%         -         0.0 km/h    1018.0 hpa     28.5º    0.0 mm
   04-07-2022    06:00      17.9º(-3.4)     87%         -         0.0 km/h    1018.0 hpa     28.6º    0.0 mm
   04-07-2022    05:55      18.0º(-3.3)     87%         -         0.0 km/h    1018.0 hpa     28.6º    0.0 mm
   04-07-2022    05:50      18.1º(-3.2)     87%         -         0.0 km/h    1017.9 hpa     28.7º    0.0 mm
   04-07-2022    05:45      18.2º(-3.1)     87%         -         0.0 km/h    1018.0 hpa     28.7º    0.0 mm
   04-07-2022    05:40      18.2º(-3.2)     87%         -         0.0 km/h    1018.0 hpa     28.7º    0.0 mm
   04-07-2022    05:35      18.3º(-3.1)     87%         -         0.0 km/h    1018.0 hpa     28.7º    0.0 mm
   04-07-2022    05:30      18.3º(-3.1)     87%         -         0.0 km/h    1018.0 hpa     28.7º    0.0 mm
   04-07-2022    05:25      18.3º(-3.1)     87%         -         0.0 km/h    1018.0 hpa     28.7º    0.0 mm
   04-07-2022    05:20      18.3º(-3.1)     87%         -         0.0 km/h    1018.1 hpa     28.7º    0.0 mm
   04-07-2022    05:15      18.2º(-3.1)     87%         -         0.0 km/h    1018.0 hpa     28.7º    0.0 mm
   04-07-2022    05:10      18.2º(-3.1)     87%         -         0.0 km/h    1018.0 hpa     28.7º    0.0 mm
   04-07-2022    05:05      18.2º(-3.1)     87%         -         0.0 km/h    1018.1 hpa     28.7º    0.0 mm
   04-07-2022    05:00      18.2º(-3.1)     87%         -         0.0 km/h    1018.1 hpa     28.7º    0.0 mm
   04-07-2022    04:55      18.2º(-3.1)     86%         -         0.0 km/h    1018.1 hpa     28.7º    0.0 mm
   04-07-2022    04:50      18.2º(-3.1)     86%         -         0.0 km/h    1018.2 hpa     28.8º    0.0 mm
   04-07-2022    04:45      18.3º(-3.0)     87%         -         0.0 km/h    1018.2 hpa     28.8º    0.0 mm
   04-07-2022    04:40      18.3º(-3.0)     87%         -         0.0 km/h    1018.2 hpa     28.8º    0.0 mm
   04-07-2022    04:35      18.2º(-3.1)     86%         -         0.0 km/h    1018.1 hpa     28.8º    0.0 mm
   04-07-2022    04:30      18.2º(-3.1)     86%         -         0.0 km/h    1018.1 hpa     28.8º    0.0 mm
   04-07-2022    04:25      18.3º(-3.0)     86%         -         0.0 km/h    1018.2 hpa     28.8º    0.0 mm
   04-07-2022    04:20      18.4º(-2.9)     86%         -         0.0 km/h    1018.2 hpa     28.8º    0.0 mm
   04-07-2022    04:15      18.4º(-3.0)     86%         -         0.0 km/h    1018.2 hpa     28.8º    0.0 mm
   04-07-2022    04:10      18.4º(-3.0)     86%         -         0.0 km/h    1018.2 hpa     28.8º    0.0 mm
   04-07-2022    04:05      18.4º(-3.1)     85%         -         0.0 km/h    1018.2 hpa     28.8º    0.0 mm
   04-07-2022    04:00      18.4º(-3.2)     85%         -         0.0 km/h    1018.2 hpa     28.8º    0.0 mm
   04-07-2022    03:55      18.4º(-3.2)     85%         -         0.0 km/h    1018.3 hpa     28.8º    0.0 mm
   04-07-2022    03:50      18.5º(-3.1)     85%         -         0.0 km/h    1018.3 hpa     28.8º    0.0 mm
   04-07-2022    03:45      18.5º(-3.2)     85%         -         0.0 km/h    1018.4 hpa     28.8º    0.0 mm
   04-07-2022    03:40      18.5º(-3.2)     85%         -         0.0 km/h    1018.4 hpa     28.8º    0.0 mm
   04-07-2022    03:35      18.5º(-3.3)     84%         -         0.0 km/h    1018.4 hpa     28.8º    0.0 mm
   04-07-2022    03:30      18.6º(-3.1)     84%         -         0.0 km/h    1018.5 hpa     28.8º    0.0 mm
   04-07-2022    03:25      18.6º(-3.1)     84%         -         0.0 km/h    1018.4 hpa     28.8º    0.0 mm
   04-07-2022    03:20      18.6º(-3.0)     84%         -         0.0 km/h    1018.5 hpa     28.8º    0.0 mm
   04-07-2022    03:15      18.6º(-3.1)     84%         -         0.0 km/h    1018.5 hpa     28.8º    0.0 mm
   04-07-2022    03:10      18.6º(-3.1)     84%         -         0.0 km/h    1018.5 hpa     28.8º    0.0 mm
   04-07-2022    03:05      18.6º(-3.1)     83%      247(SW)      1.6 km/h    1018.5 hpa     28.8º    0.0 mm
   04-07-2022    03:00      18.6º(-3.2)     83%      225(SW)      1.6 km/h    1018.7 hpa     28.8º    0.0 mm
   04-07-2022    02:55      18.6º(-3.2)     83%         -         0.0 km/h    1018.6 hpa     28.8º    0.0 mm
   04-07-2022    02:50      18.6º(-3.3)     83%         -         0.0 km/h    1018.7 hpa     28.8º    0.0 mm
   04-07-2022    02:45      18.5º(-3.6)     83%         -         0.0 km/h    1018.6 hpa     28.8º    0.0 mm
   04-07-2022    02:40      18.5º(-3.6)     83%      247(SW)      1.6 km/h    1018.7 hpa     28.8º    0.0 mm
   04-07-2022    02:35      18.4º(-3.8)     82%      247(SW)      1.6 km/h    1018.6 hpa     28.8º    0.0 mm
   04-07-2022    02:30      18.4º(-3.9)     82%         -         0.0 km/h    1018.5 hpa     28.8º    0.0 mm
   04-07-2022    02:25      18.4º(-3.9)     81%      225(SW)      1.6 km/h    1018.7 hpa     28.8º    0.0 mm
   04-07-2022    02:20      18.6º(-3.8)     81%      225(SW)      1.6 km/h    1018.7 hpa     28.8º    0.0 mm
   04-07-2022    02:15      18.7º(-3.7)     81%         -         0.0 km/h    1018.8 hpa     28.9º    0.0 mm
   04-07-2022    02:10      18.7º(-3.9)     80%      247(SW)      1.6 km/h    1018.8 hpa     28.9º    0.0 mm
   04-07-2022    02:05      18.7º(-3.9)     80%         -         0.0 km/h    1018.7 hpa     28.9º    0.0 mm
   04-07-2022    02:00      18.8º(-3.8)     79%      225(SW)      1.6 km/h    1018.8 hpa     28.9º    0.0 mm
   04-07-2022    01:55      19.0º(----)     79%      202 (S)      1.6 km/h    1018.7 hpa     28.9º    0.0 mm
   04-07-2022    01:50      19.1º(----)     78%      247(SW)      1.6 km/h    1018.7 hpa     28.9º    0.0 mm
   04-07-2022    01:45      19.2º(----)     78%         -         0.0 km/h    1018.9 hpa     28.9º    0.0 mm
   04-07-2022    01:40      19.2º(----)     78%      247(SW)      1.6 km/h    1018.9 hpa     28.9º    0.0 mm
   04-07-2022    01:35      19.2º(----)     78%      270 (W)      1.6 km/h    1018.9 hpa     28.9º    0.0 mm
   04-07-2022    01:30      19.2º(----)     78%      270 (W)      1.6 km/h    1018.9 hpa     28.9º    0.0 mm
   04-07-2022    01:25      19.2º(----)     77%      270 (W)      1.6 km/h    1019.0 hpa     28.9º    0.0 mm
   04-07-2022    01:20      19.2º(----)     77%         -         0.0 km/h    1019.0 hpa     28.9º    0.0 mm
   04-07-2022    01:15      19.3º(----)     76%      225(SW)      1.6 km/h    1018.9 hpa     28.9º    0.0 mm
   04-07-2022    01:10      19.3º(----)     76%      225(SW)      1.6 km/h    1018.9 hpa     28.9º    0.0 mm
   04-07-2022    01:05      19.3º(----)     76%      225(SW)      1.6 km/h    1018.9 hpa     28.9º    0.0 mm
   04-07-2022    01:00      19.4º(----)     75%      225(SW)      1.6 km/h    1018.8 hpa     28.9º    0.0 mm
   04-07-2022    00:55      19.4º(----)     75%      247(SW)      3.2 km/h    1018.8 hpa     28.9º    0.0 mm
   04-07-2022    00:50      19.5º(----)     75%      225(SW)      1.6 km/h    1018.7 hpa     28.9º    0.0 mm
   04-07-2022    00:45      19.6º(----)     75%      270 (W)      3.2 km/h    1018.7 hpa     28.9º    0.0 mm
   04-07-2022    00:40      19.6º(----)     74%      247(SW)      3.2 km/h    1018.6 hpa     28.9º    0.0 mm
   04-07-2022    00:35      19.7º(----)     74%      247(SW)      3.2 km/h    1018.7 hpa     28.9º    0.0 mm
   04-07-2022    00:30      19.8º(----)     74%      247(SW)      3.2 km/h    1018.6 hpa     29.1º    0.0 mm
   04-07-2022    00:25      19.8º(----)     73%      225(SW)      1.6 km/h    1018.6 hpa     29.1º    0.0 mm
   04-07-2022    00:20      19.9º(----)     73%      247(SW)      3.2 km/h    1018.6 hpa     29.1º    0.0 mm
   04-07-2022    00:15      19.9º(----)     73%      247(SW)      3.2 km/h    1018.5 hpa     29.1º    0.0 mm
   04-07-2022    00:10      20.1º(----)     72%      247(SW)      3.2 km/h    1018.5 hpa     29.1º    0.0 mm
   04-07-2022    00:05      20.1º(----)     72%      247(SW)      4.8 km/h    1018.7 hpa     29.1º    0.0 mm
   04-07-2022    00:00      20.2º(----)     72%      270 (W)      4.8 km/h    1018.6 hpa     29.1º    0.0 mm